createdAt,value
2018-07-06T00:02:41.889Z,99.90
2018-07-06T00:05:28.359Z,99.90
2018-07-06T00:08:15.060Z,99.90
2018-07-06T00:13:42.318Z,99.90
2018-07-06T00:16:28.824Z,99.90
2018-07-06T00:19:15.454Z,99.90
2018-07-06T00:22:02.055Z,99.90
2018-07-06T00:24:49.055Z,99.90
2018-07-06T00:27:35.713Z,99.90
2018-07-06T00:30:22.307Z,99.90
2018-07-06T00:33:08.727Z,99.90
2018-07-06T00:35:55.360Z,99.90
2018-07-06T00:38:41.947Z,99.90
2018-07-06T00:41:28.434Z,99.90
2018-07-06T00:44:15.071Z,99.90
2018-07-06T00:47:01.551Z,99.90
2018-07-06T00:49:48.257Z,99.90
2018-07-06T00:52:34.778Z,99.90
2018-07-06T00:55:21.180Z,99.90
2018-07-06T00:58:07.538Z,99.90
2018-07-06T01:00:54.122Z,99.90
2018-07-06T01:03:40.587Z,99.90
2018-07-06T01:06:27.095Z,99.90
2018-07-06T01:09:13.606Z,99.90
2018-07-06T01:12:04.304Z,99.90
2018-07-06T01:14:50.934Z,99.90
2018-07-06T01:17:37.318Z,99.90
2018-07-06T01:20:24.196Z,99.90
2018-07-06T01:23:10.779Z,99.90
2018-07-06T01:25:57.344Z,99.90
2018-07-06T01:28:43.990Z,99.90
2018-07-06T01:31:31.296Z,99.90
2018-07-06T01:34:17.774Z,99.90
2018-07-06T01:37:04.180Z,99.90
2018-07-06T01:39:51.180Z,99.90
2018-07-06T01:42:37.600Z,99.90
2018-07-06T01:45:24.221Z,99.90
2018-07-06T01:48:10.829Z,99.90
2018-07-06T01:50:57.920Z,99.90
2018-07-06T01:53:44.439Z,99.90
2018-07-06T01:56:31.263Z,99.90
2018-07-06T01:59:17.838Z,99.90
2018-07-06T02:02:04.444Z,99.90
2018-07-06T02:04:50.856Z,99.90
2018-07-06T02:07:37.519Z,99.90
2018-07-06T02:10:23.982Z,99.90
2018-07-06T02:15:50.987Z,99.90
2018-07-06T02:18:37.535Z,99.90
2018-07-06T02:21:23.978Z,99.90
2018-07-06T02:24:10.499Z,99.90
2018-07-06T02:26:57.336Z,99.90
2018-07-06T02:29:43.722Z,99.90
2018-07-06T02:32:30.164Z,99.90
2018-07-06T02:35:16.619Z,99.90
2018-07-06T02:38:03.044Z,99.90
2018-07-06T02:40:49.756Z,99.90
2018-07-06T02:43:36.219Z,99.90
2018-07-06T02:46:22.760Z,99.90
2018-07-06T02:49:09.650Z,99.90
2018-07-06T02:51:56.276Z,99.90
2018-07-06T02:54:42.712Z,99.90
2018-07-06T02:57:29.344Z,99.90
2018-07-06T03:00:15.832Z,99.90
2018-07-06T03:03:02.112Z,99.90
2018-07-06T03:05:48.601Z,99.90
2018-07-06T03:08:35.435Z,99.90
2018-07-06T03:11:21.991Z,99.90
2018-07-06T03:14:08.449Z,99.90
2018-07-06T03:16:55.258Z,99.90
2018-07-06T03:19:41.882Z,99.90
2018-07-06T03:22:28.404Z,99.90
2018-07-06T03:25:14.872Z,99.90
2018-07-06T03:28:01.529Z,99.90
2018-07-06T03:30:48.111Z,99.90
2018-07-06T03:33:34.828Z,99.90
2018-07-06T03:36:21.492Z,99.90
2018-07-06T03:39:07.952Z,99.90
2018-07-06T03:41:54.590Z,99.90
2018-07-06T03:44:40.956Z,99.90
2018-07-06T03:47:27.534Z,99.90
2018-07-06T03:50:14.094Z,99.90
2018-07-06T03:53:00.503Z,99.90
2018-07-06T03:55:47.112Z,99.90
2018-07-06T03:58:33.782Z,99.90
2018-07-06T04:01:20.240Z,99.90
2018-07-06T04:04:06.980Z,99.90
2018-07-06T04:06:53.404Z,99.90
2018-07-06T04:09:39.971Z,99.90
2018-07-06T04:12:26.491Z,99.90
2018-07-06T04:15:12.911Z,99.90
2018-07-06T04:17:59.219Z,99.90
2018-07-06T04:20:45.784Z,99.90
2018-07-06T04:23:32.242Z,99.90
2018-07-06T04:26:18.600Z,99.90
2018-07-06T04:29:05.080Z,99.90
2018-07-06T04:31:51.874Z,99.90
2018-07-06T04:34:38.479Z,99.90
2018-07-06T04:37:25.092Z,99.90
2018-07-06T04:40:11.671Z,99.90
2018-07-06T04:42:58.163Z,99.90
2018-07-06T04:45:45.455Z,99.90
2018-07-06T04:48:32.104Z,99.90
2018-07-06T04:51:18.487Z,99.90
2018-07-06T04:54:04.874Z,99.90
2018-07-06T04:56:51.531Z,99.90
2018-07-06T04:59:38.046Z,99.90
2018-07-06T05:02:24.478Z,99.90
2018-07-06T05:05:10.914Z,99.90
2018-07-06T05:07:57.535Z,99.90
2018-07-06T05:10:43.956Z,99.90
2018-07-06T05:13:30.444Z,99.90
2018-07-06T05:16:17.063Z,99.90
2018-07-06T05:19:03.501Z,99.90
2018-07-06T05:21:50.076Z,99.90
2018-07-06T05:24:36.782Z,99.90
2018-07-06T05:27:23.304Z,99.90
2018-07-06T05:30:09.908Z,99.90
2018-07-06T05:32:56.481Z,99.90
2018-07-06T05:35:43.325Z,99.90
2018-07-06T05:38:30.339Z,99.90
2018-07-06T05:41:17.024Z,99.90
2018-07-06T05:44:03.645Z,99.90
2018-07-06T05:46:49.979Z,99.90
2018-07-06T05:49:36.506Z,99.90
2018-07-06T05:52:22.965Z,99.90
2018-07-06T05:55:09.563Z,99.90
2018-07-06T05:57:56.103Z,99.90
2018-07-06T06:03:23.143Z,99.90
2018-07-06T06:06:09.816Z,99.90
2018-07-06T06:08:43.830Z,99.90
2018-07-06T06:11:19.096Z,99.90
2018-07-06T06:13:54.284Z,99.90
2018-07-06T06:16:29.338Z,99.90
2018-07-06T06:19:05.221Z,99.90
2018-07-06T06:37:55.696Z,99.90
2018-07-06T06:40:31.099Z,99.90
2018-07-06T06:43:06.775Z,99.90
2018-07-06T06:45:42.104Z,99.90
2018-07-06T06:48:17.377Z,99.90
2018-07-06T06:53:27.580Z,99.90
2018-07-06T06:56:02.810Z,99.90
2018-07-06T06:58:38.969Z,99.90
2018-07-06T07:01:14.275Z,99.90
2018-07-06T07:03:49.684Z,99.90
2018-07-06T07:06:24.940Z,99.90
2018-07-06T07:09:00.264Z,99.90
2018-07-06T07:11:36.084Z,99.90
2018-07-06T07:14:11.263Z,99.90
2018-07-06T07:16:46.534Z,99.90
2018-07-06T07:19:21.766Z,99.90
2018-07-06T07:24:39.090Z,99.90
2018-07-06T07:27:14.744Z,99.90
2018-07-06T07:29:50.232Z,99.90
2018-07-06T07:32:25.521Z,99.90
2018-07-06T07:35:01.231Z,99.90
2018-07-06T07:37:36.591Z,99.90
2018-07-06T07:40:11.782Z,99.90
2018-07-06T07:42:46.940Z,99.90
2018-07-06T07:45:22.455Z,99.90
2018-07-06T07:47:57.652Z,99.90
2018-07-06T07:50:32.864Z,99.90
2018-07-06T07:58:23.622Z,99.90
2018-07-06T08:00:59.145Z,99.90
2018-07-06T08:03:34.283Z,99.90
2018-07-06T08:06:09.699Z,99.90
2018-07-06T08:08:44.888Z,99.90
2018-07-06T08:11:20.280Z,99.90
2018-07-06T08:13:55.470Z,99.90
2018-07-06T08:16:31.081Z,99.90
2018-07-06T08:19:06.853Z,99.90
2018-07-06T08:21:42.045Z,99.90
2018-07-06T08:24:19.809Z,99.90
2018-07-06T08:26:54.857Z,99.90
2018-07-06T08:29:30.232Z,99.90
2018-07-06T08:32:05.982Z,99.90
2018-07-06T08:34:52.481Z,99.90
2018-07-06T08:37:40.651Z,99.90
2018-07-06T08:40:16.632Z,99.90
2018-07-06T08:42:53.885Z,99.90
2018-07-06T08:45:29.883Z,99.90
2018-07-06T08:50:40.304Z,99.90
2018-07-06T08:53:15.462Z,99.90
2018-07-06T08:55:50.744Z,99.90
2018-07-06T08:58:26.026Z,99.90
2018-07-06T09:01:01.263Z,99.90
2018-07-06T09:03:36.423Z,99.90
2018-07-06T09:06:11.708Z,99.90
2018-07-06T09:08:47.008Z,99.90
2018-07-06T09:11:22.191Z,99.90
2018-07-06T09:13:57.507Z,99.90
2018-07-06T09:16:32.821Z,99.90
2018-07-06T09:21:43.211Z,99.90
2018-07-06T09:26:53.208Z,99.90
2018-07-06T09:29:28.327Z,99.90
2018-07-06T09:32:03.802Z,99.90
2018-07-06T09:34:39.199Z,99.60
2018-07-06T09:37:14.523Z,99.10
2018-07-06T09:39:50.391Z,98.70
2018-07-06T09:42:25.553Z,98.10
2018-07-06T09:47:36.154Z,97.60
2018-07-06T09:50:11.320Z,98.70
2018-07-06T09:52:46.873Z,98.90
2018-07-06T09:55:22.245Z,99.10
2018-07-06T09:57:57.637Z,98.10
2018-07-06T10:00:38.022Z,98.30
2018-07-06T10:03:13.317Z,98.30
2018-07-06T10:05:48.479Z,97.70
2018-07-06T10:08:23.683Z,96.70
2018-07-06T10:10:59.034Z,96.50
2018-07-06T10:13:34.371Z,96.40
2018-07-06T10:18:45.180Z,96.40
2018-07-06T10:21:20.553Z,96.00
2018-07-06T10:23:55.856Z,96.30
2018-07-06T10:26:31.732Z,95.90
2018-07-06T10:29:48.328Z,95.80
2018-07-06T10:32:26.679Z,95.70
2018-07-06T10:35:01.914Z,95.90
2018-07-06T10:37:37.092Z,96.10
2018-07-06T10:40:12.771Z,96.00
2018-07-06T10:42:47.933Z,96.00
2018-07-06T10:45:23.061Z,95.10
2018-07-06T10:47:58.801Z,95.10
2018-07-06T10:50:34.280Z,95.50
2018-07-06T10:53:10.683Z,94.90
2018-07-06T10:55:46.317Z,94.40
2018-07-06T10:58:21.747Z,94.70
2018-07-06T11:00:57.127Z,94.60
2018-07-06T11:03:32.455Z,94.10
2018-07-06T11:06:07.651Z,93.90
2018-07-06T11:08:43.000Z,93.70
2018-07-06T11:11:18.759Z,93.70
2018-07-06T11:13:53.927Z,93.70
2018-07-06T11:19:04.069Z,93.50
2018-07-06T11:21:39.395Z,93.50
2018-07-06T11:24:15.244Z,93.30
2018-07-06T11:26:50.567Z,93.40
2018-07-06T11:29:25.680Z,93.40
2018-07-06T11:32:06.253Z,93.20
2018-07-06T11:37:16.516Z,92.50
2018-07-06T11:39:51.901Z,92.80
2018-07-06T11:42:27.159Z,92.40
2018-07-06T11:45:02.323Z,92.30
2018-07-06T11:50:12.791Z,92.20
2018-07-06T11:52:48.206Z,92.50
2018-07-06T11:55:23.416Z,92.00
2018-07-06T11:57:58.494Z,91.30
2018-07-06T12:00:33.816Z,90.90
2018-07-06T12:03:09.030Z,90.70
2018-07-06T12:05:44.305Z,90.90
2018-07-06T12:08:19.710Z,91.00
2018-07-06T12:10:55.048Z,91.30
2018-07-06T12:13:30.552Z,91.20
2018-07-06T12:16:05.666Z,90.60
2018-07-06T12:18:40.800Z,90.30
2018-07-06T12:21:16.243Z,90.00
2018-07-06T12:23:51.391Z,90.30
2018-07-06T12:26:26.831Z,89.00
2018-07-06T12:29:02.196Z,89.30
2018-07-06T12:31:37.481Z,88.50
2018-07-06T12:34:13.168Z,88.60
2018-07-06T12:36:48.511Z,88.10
2018-07-06T12:39:23.693Z,87.60
2018-07-06T12:41:59.052Z,87.50
2018-07-06T12:44:34.304Z,88.10
2018-07-06T12:47:09.582Z,87.00
2018-07-06T12:49:44.916Z,87.20
2018-07-06T12:52:20.128Z,87.80
2018-07-06T12:54:56.004Z,87.90
2018-07-06T12:57:31.271Z,86.30
2018-07-06T13:00:07.202Z,85.20
2018-07-06T13:02:42.425Z,84.70
2018-07-06T13:05:17.795Z,84.20
2018-07-06T13:07:53.082Z,83.30
2018-07-06T13:10:28.473Z,82.00
2018-07-06T13:22:48.793Z,83.30
2018-07-06T13:25:24.677Z,84.70
2018-07-06T13:28:00.342Z,85.30
2018-07-06T13:30:35.440Z,83.40
2018-07-06T13:33:10.684Z,83.10
2018-07-06T13:35:46.056Z,83.00
2018-07-06T13:38:21.286Z,81.20
2018-07-06T13:40:56.559Z,79.70
2018-07-06T13:43:31.927Z,80.60
2018-07-06T13:46:07.656Z,80.30
2018-07-06T13:48:43.047Z,80.50
2018-07-06T13:51:18.516Z,80.80
2018-07-06T13:53:53.811Z,81.70
2018-07-06T13:56:29.003Z,82.50
2018-07-06T13:59:04.390Z,82.70
2018-07-06T14:01:39.662Z,83.40
2018-07-06T14:04:15.252Z,84.30
2018-07-06T14:06:50.948Z,84.60
2018-07-06T14:09:26.378Z,84.90
2018-07-06T14:12:01.683Z,85.30
2018-07-06T14:14:36.854Z,84.40
2018-07-06T14:17:12.208Z,84.60
2018-07-06T14:19:47.976Z,85.20
2018-07-06T14:22:23.412Z,85.40
2018-07-06T14:24:58.467Z,85.30
2018-07-06T14:27:34.105Z,85.10
2018-07-06T14:30:12.599Z,85.20
2018-07-06T14:32:47.757Z,85.40
2018-07-06T14:35:23.655Z,85.50
2018-07-06T14:37:59.959Z,86.10
2018-07-06T14:40:35.480Z,85.70
2018-07-06T14:43:10.666Z,85.80
2018-07-06T14:45:46.105Z,85.20
2018-07-06T14:48:21.326Z,84.90
2018-07-06T14:50:56.595Z,84.30
2018-07-06T14:53:32.025Z,82.80
2018-07-06T14:56:07.469Z,81.90
2018-07-06T14:58:42.798Z,82.30
2018-07-06T15:01:18.624Z,81.30
2018-07-06T15:03:54.595Z,81.70
2018-07-06T15:06:29.992Z,82.00
2018-07-06T15:09:06.306Z,81.90
2018-07-06T15:11:41.452Z,82.30
2018-07-06T15:14:16.916Z,82.40
2018-07-06T15:16:52.264Z,82.10
2018-07-06T15:19:27.497Z,81.90
2018-07-06T15:22:02.832Z,82.00
2018-07-06T15:24:38.265Z,82.60
2018-07-06T15:27:13.383Z,82.60
2018-07-06T15:34:58.711Z,83.10
2018-07-06T15:37:33.991Z,82.90
2018-07-06T15:40:09.307Z,83.10
2018-07-06T15:42:44.786Z,82.40
2018-07-06T15:45:20.371Z,82.60
2018-07-06T15:47:55.541Z,82.60
2018-07-06T15:50:30.872Z,84.10
2018-07-06T15:53:06.461Z,83.30
2018-07-06T15:55:41.879Z,82.10
2018-07-06T15:58:17.163Z,81.70
2018-07-06T16:00:52.600Z,82.50
2018-07-06T16:03:27.846Z,81.40
2018-07-06T16:06:03.535Z,82.10
2018-07-06T16:08:39.181Z,82.50
2018-07-06T16:11:14.540Z,82.60
2018-07-06T16:13:50.423Z,81.90
2018-07-06T16:16:25.688Z,81.60
2018-07-06T16:19:01.763Z,81.40
2018-07-06T16:21:37.313Z,81.90
2018-07-06T16:24:12.848Z,79.80
2018-07-06T16:26:48.522Z,80.40
2018-07-06T16:29:24.291Z,81.90
2018-07-06T16:32:00.366Z,81.30
2018-07-06T16:34:35.974Z,81.30
2018-07-06T16:37:11.459Z,80.60
2018-07-06T16:39:47.773Z,80.30
2018-07-06T16:42:22.843Z,80.50
2018-07-06T16:44:58.156Z,80.20
2018-07-06T16:47:33.319Z,77.80
2018-07-06T16:50:09.167Z,77.90
2018-07-06T16:52:44.318Z,77.30
2018-07-06T16:55:19.513Z,76.80
2018-07-06T16:57:54.735Z,77.50
2018-07-06T17:00:30.540Z,76.50
2018-07-06T17:03:05.871Z,77.10
2018-07-06T17:05:41.291Z,77.50
2018-07-06T17:08:16.867Z,78.30
2018-07-06T17:10:52.184Z,78.10
2018-07-06T17:13:28.019Z,77.80
2018-07-06T17:16:03.379Z,78.00
2018-07-06T17:18:39.138Z,79.50
2018-07-06T17:21:14.240Z,78.80
2018-07-06T17:23:49.330Z,78.40
2018-07-06T17:26:24.652Z,79.40
2018-07-06T17:29:00.205Z,78.50
2018-07-06T17:31:35.479Z,78.50
2018-07-06T17:34:10.836Z,78.90
2018-07-06T17:36:46.258Z,79.20
2018-07-06T17:39:21.675Z,78.50
2018-07-06T17:41:56.938Z,78.30
2018-07-06T17:44:32.268Z,76.40
2018-07-06T17:47:07.728Z,77.30
2018-07-06T17:49:43.501Z,77.10
2018-07-06T17:52:19.005Z,77.10
2018-07-06T17:54:54.520Z,77.30
2018-07-06T17:57:29.890Z,77.30
2018-07-06T18:00:05.648Z,77.60
2018-07-06T18:02:40.839Z,77.00
2018-07-06T18:05:16.021Z,78.10
2018-07-06T18:07:51.324Z,78.70
2018-07-06T18:10:27.007Z,77.90
2018-07-06T18:13:02.208Z,76.60
2018-07-06T18:15:37.618Z,77.50
2018-07-06T18:18:14.746Z,77.80
2018-07-06T18:20:49.986Z,78.10
2018-07-06T18:23:25.935Z,78.60
2018-07-06T18:26:01.348Z,79.30
2018-07-06T18:28:36.529Z,80.10
2018-07-06T18:31:11.676Z,80.60
2018-07-06T18:33:46.816Z,79.60
2018-07-06T18:36:22.749Z,80.50
2018-07-06T18:38:58.103Z,81.20
2018-07-06T18:41:33.818Z,80.90
2018-07-06T18:44:09.156Z,79.90
2018-07-06T18:46:44.672Z,78.90
2018-07-06T18:49:20.019Z,78.90
2018-07-06T18:51:55.412Z,78.70
2018-07-06T18:54:31.383Z,78.70
2018-07-06T18:57:07.048Z,79.20
2018-07-06T18:59:42.547Z,79.50
2018-07-06T19:02:18.025Z,79.60
2018-07-06T19:04:53.357Z,79.30
2018-07-06T19:07:29.265Z,79.10
2018-07-06T19:10:05.053Z,78.90
2018-07-06T19:12:40.286Z,78.80
2018-07-06T19:15:15.680Z,79.00
2018-07-06T19:17:55.205Z,79.60
2018-07-06T19:20:31.051Z,79.20
2018-07-06T19:23:06.700Z,79.70
2018-07-06T19:25:42.229Z,79.90
2018-07-06T19:28:17.519Z,79.90
2018-07-06T19:30:52.823Z,80.40
2018-07-06T19:33:28.061Z,79.80
2018-07-06T19:36:03.505Z,79.70
2018-07-06T19:38:39.267Z,79.40
2018-07-06T19:41:14.872Z,79.60
2018-07-06T19:43:50.368Z,79.80
2018-07-06T19:46:25.712Z,79.80
2018-07-06T19:51:35.650Z,80.50
2018-07-06T19:56:47.455Z,81.60
2018-07-06T19:59:22.803Z,82.50
2018-07-06T20:01:58.323Z,82.90
2018-07-06T20:04:33.844Z,83.30
2018-07-06T20:07:09.172Z,83.60
2018-07-06T20:09:44.495Z,84.60
2018-07-06T20:12:19.947Z,85.10
2018-07-06T20:14:55.308Z,86.60
2018-07-06T20:20:08.523Z,84.80
2018-07-06T20:22:43.955Z,82.70
2018-07-06T20:25:19.083Z,82.40
2018-07-06T20:27:57.518Z,82.70
2018-07-06T20:30:33.281Z,82.70
2018-07-06T20:33:08.573Z,82.90
2018-07-06T20:35:44.139Z,82.80
2018-07-06T20:38:19.327Z,82.90
2018-07-06T20:40:54.604Z,83.50
2018-07-06T20:43:30.212Z,83.80
2018-07-06T20:46:05.899Z,84.00
2018-07-06T20:48:41.004Z,84.10
2018-07-06T20:51:16.241Z,83.70
2018-07-06T20:56:26.123Z,83.90
2018-07-06T20:59:01.524Z,84.30
2018-07-06T21:01:36.952Z,83.50
2018-07-06T21:04:12.220Z,83.70
2018-07-06T21:06:47.601Z,84.20
2018-07-06T21:09:22.857Z,84.10
2018-07-06T21:11:58.055Z,84.00
2018-07-06T21:14:33.816Z,86.70
2018-07-06T21:17:09.254Z,88.10
2018-07-06T21:19:44.311Z,88.70
2018-07-06T21:22:19.501Z,89.20
2018-07-06T21:24:54.932Z,88.40
2018-07-06T21:32:39.884Z,85.50
2018-07-06T21:35:15.124Z,85.00
2018-07-06T21:37:50.363Z,84.50
2018-07-06T21:40:25.724Z,84.30
2018-07-06T21:43:01.225Z,84.20
2018-07-06T21:45:36.546Z,83.80
2018-07-06T21:48:12.064Z,83.40
2018-07-06T21:50:47.556Z,83.70
2018-07-06T21:53:22.932Z,83.50
2018-07-06T21:55:58.405Z,83.50
2018-07-06T21:58:34.173Z,83.30
2018-07-06T22:01:10.442Z,83.20
2018-07-06T22:03:45.875Z,83.50
2018-07-06T22:06:21.088Z,83.60
2018-07-06T22:08:56.685Z,83.70
2018-07-06T22:11:32.032Z,84.10
2018-07-06T22:14:07.391Z,84.10
2018-07-06T22:16:42.593Z,84.40
2018-07-06T22:19:17.883Z,84.30
2018-07-06T22:21:53.595Z,84.50
2018-07-06T22:24:28.977Z,85.10
2018-07-06T22:27:04.199Z,84.70
2018-07-06T22:32:14.288Z,83.80
2018-07-06T22:34:49.644Z,84.40
2018-07-06T22:37:24.963Z,84.10
2018-07-06T22:40:00.129Z,84.80
2018-07-06T22:45:11.359Z,84.60
2018-07-06T22:47:46.713Z,84.90
2018-07-06T22:50:21.989Z,85.10
2018-07-06T22:52:57.479Z,85.60
2018-07-06T22:55:32.704Z,85.70
2018-07-06T22:58:07.869Z,85.90
2018-07-06T23:00:43.274Z,86.00
2018-07-06T23:03:18.993Z,86.30
2018-07-06T23:05:54.276Z,87.10
2018-07-06T23:08:30.298Z,87.40
2018-07-06T23:11:05.650Z,87.40
2018-07-06T23:13:41.640Z,88.10
2018-07-06T23:16:17.340Z,88.70
2018-07-06T23:18:52.699Z,89.00
2018-07-06T23:21:28.075Z,89.40
2018-07-06T23:24:03.317Z,89.80
2018-07-06T23:29:14.101Z,89.20
2018-07-06T23:31:49.347Z,89.10
2018-07-06T23:34:24.747Z,89.50
2018-07-06T23:37:00.133Z,89.00
2018-07-06T23:39:35.731Z,88.60
2018-07-06T23:42:10.926Z,88.80
2018-07-06T23:44:46.468Z,89.10
2018-07-06T23:49:56.499Z,88.80
2018-07-06T23:52:31.737Z,89.10
2018-07-06T23:55:07.102Z,88.90
2018-07-06T23:57:42.496Z,88.70
